createdAt,value
2023-05-14T00:44:43.802Z,0.04
2023-05-14T01:04:23.569Z,0.04
2023-05-14T01:09:23.357Z,0.04
2023-05-14T01:14:24.710Z,0.04
2023-05-14T01:19:21.606Z,0.04
2023-05-14T01:24:21.043Z,0.04
2023-05-14T01:29:20.789Z,0.04
2023-05-14T01:34:20.296Z,0.04
2023-05-14T01:39:17.826Z,0.04
2023-05-14T01:44:17.725Z,0.04
2023-05-14T01:49:16.746Z,0.04
2023-05-14T01:54:16.688Z,0.04
2023-05-14T01:59:15.732Z,0.04
2023-05-14T02:01:02.173Z,0.04
2023-05-14T02:05:46.637Z,0.04
2023-05-14T02:15:46.171Z,0.04
2023-05-14T02:20:45.410Z,0.04
2023-05-14T02:25:45.089Z,0.04
2023-05-14T02:30:32.994Z,0.04
2023-05-14T02:35:32.482Z,0.04
2023-05-14T02:40:33.264Z,0.03
2023-05-14T02:45:32.462Z,0.04
2023-05-14T02:50:29.848Z,0.04
2023-05-14T02:55:30.104Z,0.04
2023-05-14T03:09:52.929Z,0.04
2023-05-14T03:24:51.762Z,0.05
2023-05-14T03:29:51.460Z,0.05
2023-05-14T03:34:51.060Z,0.08
2023-05-14T03:54:48.122Z,0.24
2023-05-14T04:04:44.642Z,0.41
2023-05-14T05:04:27.528Z,2.26
2023-05-14T05:09:28.224Z,2.44
2023-05-14T05:14:24.728Z,2.61
2023-05-14T05:19:32.441Z,2.77
2023-05-14T05:24:24.145Z,2.97
2023-05-14T05:29:24.051Z,3.21
2023-05-14T05:34:21.785Z,3.37
2023-05-14T05:39:21.346Z,3.6
2023-05-14T05:44:21.776Z,3.85
2023-05-14T05:49:21.280Z,4.13
2023-05-14T05:54:20.815Z,4.52
2023-05-14T07:01:00.371Z,7.78
2023-05-14T07:05:45.767Z,10.2
2023-05-14T07:10:44.977Z,13.66
2023-05-14T07:15:44.813Z,14.46
2023-05-14T07:20:45.850Z,15.11
2023-05-14T07:25:46.920Z,10.12
2023-05-14T07:30:44.739Z,16.02
2023-05-14T07:40:46.658Z,17.43
2023-05-14T07:45:44.200Z,18.06
2023-05-14T07:50:45.396Z,18.59
2023-05-14T07:55:45.279Z,19.43
2023-05-14T08:09:53.936Z,21.35
2023-05-14T08:14:54.880Z,21.89
2023-05-14T08:19:51.087Z,22.85
2023-05-14T08:29:52.920Z,24.33
2023-05-14T08:34:50.557Z,25.07
2023-05-14T09:04:44.912Z,29.35
2023-05-14T09:09:44.724Z,29.53
2023-05-14T09:14:45.425Z,29.78
2023-05-14T09:19:32.442Z,30.58
2023-05-14T09:24:31.829Z,12.5
2023-05-14T09:29:31.491Z,30.25
2023-05-14T09:34:29.029Z,29.96
2023-05-14T09:39:28.631Z,32.78
2023-05-14T09:44:28.367Z,13.13
2023-05-14T09:49:28.339Z,14.96
2023-05-14T09:54:27.061Z,17.3
2023-05-14T10:24:24.249Z,11.72
2023-05-14T10:29:23.104Z,9.6
2023-05-14T10:34:22.714Z,8.97
2023-05-14T10:39:19.804Z,11.37
2023-05-14T10:44:19.401Z,12.06
2023-05-14T10:49:25.754Z,12.82
2023-05-14T10:54:18.168Z,13.08
2023-05-14T11:01:04.369Z,13.08
2023-05-14T11:05:48.813Z,15.45
2023-05-14T11:10:47.669Z,39.79
2023-05-14T11:15:48.123Z,23.01
2023-05-14T11:20:48.404Z,22.99
2023-05-14T11:25:49.749Z,40.17
2023-05-14T11:30:47.351Z,20.52
2023-05-14T11:35:47.012Z,14.51
2023-05-14T11:40:48.627Z,14.74
2023-05-14T11:45:45.243Z,17.05
2023-05-14T11:50:45.481Z,14.8
2023-05-14T11:55:44.656Z,15.44
2023-05-14T12:29:48.127Z,18.31
2023-05-14T12:34:45.031Z,20.78
2023-05-14T12:39:45.217Z,17.38
2023-05-14T12:49:43.869Z,18.22
2023-05-14T12:54:43.053Z,26.09
2023-05-14T12:59:43.378Z,15.19
2023-05-14T14:04:24.415Z,13.56
2023-05-14T14:09:23.460Z,9.38
2023-05-14T14:14:22.680Z,8.39
2023-05-14T14:19:23.092Z,8.24
2023-05-14T14:24:20.352Z,8.62
2023-05-14T14:29:19.627Z,9.15
2023-05-14T14:34:19.997Z,10.46
2023-05-14T14:39:19.176Z,12.75
2023-05-14T14:44:19.007Z,14.35
2023-05-14T14:49:18.872Z,10.74
2023-05-14T14:54:19.045Z,9.47
2023-05-14T14:59:18.494Z,11.77
2023-05-14T15:01:06.834Z,12.04
2023-05-14T15:05:48.543Z,10.61
2023-05-14T15:10:48.630Z,9.43
2023-05-14T15:15:48.373Z,11.7
2023-05-14T15:20:46.535Z,7.6
2023-05-14T15:25:46.916Z,7.4
2023-05-14T15:30:46.703Z,6.94
2023-05-14T15:35:45.946Z,7.26
2023-05-14T15:40:45.334Z,6.79
2023-05-14T15:45:45.087Z,6.29
2023-05-14T15:50:43.722Z,6.34
2023-05-14T15:55:43.632Z,7.16
2023-05-14T16:09:52.015Z,4.94
2023-05-14T16:19:52.004Z,4.64
2023-05-14T16:24:51.091Z,4.88
2023-05-14T16:29:48.492Z,6.93
2023-05-14T16:34:48.185Z,6.23
2023-05-14T16:44:48.192Z,4.27
2023-05-14T16:49:47.789Z,3.79
2023-05-14T16:54:47.183Z,3.58
2023-05-14T16:59:44.329Z,3.49
2023-05-14T17:04:43.447Z,3.47
2023-05-14T18:01:09.562Z,1.54
2023-05-14T18:56:30.203Z,0.17
2023-05-14T20:29:46.300Z,0.04
2023-05-14T22:04:22.618Z,0.04
2023-05-14T22:09:23.247Z,0.04
2023-05-14T22:14:19.698Z,0.04
2023-05-14T22:19:19.850Z,0.04
2023-05-14T22:24:19.580Z,0.04
2023-05-14T22:29:18.574Z,0.04
2023-05-14T22:34:18.746Z,0.04
2023-05-14T22:39:18.610Z,0.04
2023-05-14T22:44:18.292Z,0.04
2023-05-14T22:49:19.234Z,0.04
2023-05-14T22:54:16.318Z,0.04
2023-05-14T22:59:15.706Z,0.04
2023-05-14T23:01:02.033Z,0.04
2023-05-14T23:05:48.502Z,0.04
2023-05-14T23:10:45.281Z,0.04
2023-05-14T23:15:45.250Z,0.04
2023-05-14T23:20:46.614Z,0.03
2023-05-14T23:25:44.175Z,0.04
2023-05-14T23:30:43.194Z,0.04
2023-05-14T23:35:43.183Z,0.04
2023-05-14T23:40:30.845Z,0.04
2023-05-14T23:45:30.518Z,0.04
2023-05-14T23:50:30.911Z,0.04
2023-05-14T23:55:30.276Z,0.04
